ADDS METAR Data INFO
IDs: Format: Raw Decoded Include TAF

Data at: 1207 UTC 21 Jun 2018

KLXV 211153Z AUTO 00000KT 10SM CLR 01/M01 A3047 RMK AO2 SLP170 T00061006 10078 20006 53001
KLXV 211053Z AUTO 07004KT 10SM CLR 03/02 A3046 RMK AO2 SLP155 T00330022
KLXV 210953Z AUTO 09004KT 10SM CLR 04/02 A3046 RMK AO2 SLP152 T00440022
KLXV 210853Z AUTO 00000KT 10SM CLR 04/02 A3046 RMK AO2 SLP152 T00390017 57002
KLXV 210753Z AUTO 10005KT 10SM CLR 06/02 A3046 RMK AO2 SLP149 T00610017
KLXV 210653Z AUTO 00000KT 10SM CLR 07/00 A3047 RMK AO2 SLP154 T00670000 402060006
KLXV 210553Z AUTO 00000KT 10SM CLR 06/M01 A3047 RMK AO2 SLP162 T00561011 10189 20050 51004
KLXV 210453Z AUTO 06006KT 10SM CLR 07/M01 A3047 RMK AO2 SLP161 T00671006
KLXV 210353Z AUTO 08005KT 10SM CLR 09/M01 A3047 RMK AO2 SLP157 T00941006
KLXV 210253Z AUTO VRB04KT 10SM CLR 13/M01 A3045 RMK AO2 SLP144 T01331006 51016
KLXV 210153Z AUTO 30010KT 10SM CLR 17/M01 A3043 RMK AO2 SLP137 T01671011
KLXV 210053Z AUTO 30013KT 10SM FEW080 18/M02 A3041 RMK AO2 SLP137 T01831022
KLXV 202353Z AUTO 28013G22KT 10SM CLR 19/M03 A3039 RMK AO2 SLP137 T01941028 10206 20161 53003
KLXV 202253Z AUTO 32011G20KT 10SM CLR 20/M02 A3038 RMK AO2 SLP131 T02001022
KLXV 202153Z AUTO 35010G19KT 10SM CLR 20/M03 A3037 RMK AO2 SLP120 T02001028
KLXV 202053Z AUTO 33012KT 10SM CLR 20/M04 A3038 RMK AO2 SLP117 T02001044 56001
KLXV 201953Z AUTO 32015G23KT 10SM CLR 19/M03 A3038 RMK AO2 SLP121 T01891033
KLXV 201853Z AUTO 10SM CLR 17/M03 A3038 RMK AO2 SLP125 T01721033
KLXV 201753Z AUTO 32010G20KT 10SM CLR 16/M03 A3038 RMK AO2 SLP127 T01611028 10161 20017 58001
KLXV 201653Z AUTO 10SM CLR 15/M02 A3039 RMK AO2 SLP125 T01501017
KLXV 201553Z AUTO 34011G21KT 10SM CLR 14/M02 A3038 RMK AO2 SLP124 T01391022
KLXV 201453Z AUTO 01005KT 10SM CLR 12/01 A3039 RMK AO2 SLP120 T01220006 53002
KLXV 201353Z AUTO 31004KT 10SM CLR 09/03 A3038 RMK AO2 SLP119 T00890028
KLXV 201253Z AUTO 07003KT 10SM FEW019 05/01 A3038 RMK AO2 SLP126 T00500011
KLXV 201153Z AUTO 06004KT 10SM CLR 02/M01 A3038 RMK AO2 SLP134 T00171011 10072 20006 50001
KLXV 201053Z AUTO 00000KT 10SM CLR 02/M01 A3038 RMK AO2 SLP131 T00221006
KLXV 200953Z AUTO 00000KT 10SM CLR 04/00 A3038 RMK AO2 SLP122 T00390000
KLXV 200853Z AUTO 04007KT 10SM CLR 05/00 A3038 RMK AO2 SLP117 T00500000 50001
KLXV 200753Z AUTO 05007KT 10SM CLR 06/00 A3038 RMK AO2 SLP117 T00560000
KLXV 200653Z AUTO 04008KT 10SM CLR 06/00 A3038 RMK AO2 SLP125 T00560000 402060011
KLXV 200553Z AUTO 08005KT 10SM CLR 07/00 A3037 RMK AO2 SLP120 T00670000 10194 20061 51014
KLXV 200453Z AUTO 00000KT 10SM CLR 09/M04 A3037 RMK AO2 SLP109 T00891039
KLXV 200353Z AUTO 05004KT 10SM CLR 10/M05 A3034 RMK AO2 SLP105 T01001050
KLXV 200253Z AUTO 33005KT 10SM CLR 13/M05 A3032 RMK AO2 SLP092 T01331050 53009
KLXV 200153Z AUTO 32012G18KT 10SM CLR 16/M05 A3030 RMK AO2 SLP090 T01611050
KLXV 200053Z AUTO 34011G20KT 10SM CLR 18/M06 A3029 RMK AO2 PK WND 31026/2359 SLP089 T01781061